sensor_id;sensor_type;location;lat;lon;timestamp;temperature;humidity
12634;DHT22;6382;48.614;8.880;2023-07-24T00:00:28;18.60;99.90
12634;DHT22;6382;48.614;8.880;2023-07-24T00:02:55;18.30;99.90
12634;DHT22;6382;48.614;8.880;2023-07-24T00:05:23;18.60;99.90
12634;DHT22;6382;48.614;8.880;2023-07-24T00:07:49;18.40;99.90
12634;DHT22;6382;48.614;8.880;2023-07-24T00:10:16;19.10;99.90
12634;DHT22;6382;48.614;8.880;2023-07-24T00:12:43;20.70;99.90
12634;DHT22;6382;48.614;8.880;2023-07-24T00:15:12;18.50;99.90
12634;DHT22;6382;48.614;8.880;2023-07-24T00:17:41;18.50;99.90
12634;DHT22;6382;48.614;8.880;2023-07-24T00:20:11;19.20;99.90
12634;DHT22;6382;48.614;8.880;2023-07-24T00:22:38;18.40;99.90
12634;DHT22;6382;48.614;8.880;2023-07-24T00:25:06;18.50;99.90
12634;DHT22;6382;48.614;8.880;2023-07-24T00:27:35;18.40;99.90
12634;DHT22;6382;48.614;8.880;2023-07-24T00:30:02;18.20;99.90
12634;DHT22;6382;48.614;8.880;2023-07-24T00:32:30;18.20;99.90
12634;DHT22;6382;48.614;8.880;2023-07-24T00:34:57;18.20;99.90
12634;DHT22;6382;48.614;8.880;2023-07-24T00:37:25;18.20;99.90
12634;DHT22;6382;48.614;8.880;2023-07-24T00:39:54;16.30;99.90
12634;DHT22;6382;48.614;8.880;2023-07-24T00:42:37;18.20;99.90
12634;DHT22;6382;48.614;8.880;2023-07-24T00:45:05;16.70;99.90
12634;DHT22;6382;48.614;8.880;2023-07-24T00:50:49;17.70;99.90
12634;DHT22;6382;48.614;8.880;2023-07-24T00:53:16;17.80;99.90
12634;DHT22;6382;48.614;8.880;2023-07-24T00:55:44;15.80;99.90
12634;DHT22;6382;48.614;8.880;2023-07-24T00:58:13;19.10;99.90
12634;DHT22;6382;48.614;8.880;2023-07-24T01:00:41;16.20;99.90
12634;DHT22;6382;48.614;8.880;2023-07-24T01:03:11;17.50;99.90
12634;DHT22;6382;48.614;8.880;2023-07-24T01:05:39;17.60;99.90
12634;DHT22;6382;48.614;8.880;2023-07-24T01:08:08;17.70;99.90
12634;DHT22;6382;48.614;8.880;2023-07-24T01:10:35;17.80;99.90
12634;DHT22;6382;48.614;8.880;2023-07-24T01:13:05;17.40;99.90
12634;DHT22;6382;48.614;8.880;2023-07-24T01:15:36;19.70;99.90
12634;DHT22;6382;48.614;8.880;2023-07-24T01:18:08;17.20;99.90
12634;DHT22;6382;48.614;8.880;2023-07-24T01:20:40;15.40;99.90
12634;DHT22;6382;48.614;8.880;2023-07-24T01:26:00;17.30;99.90
12634;DHT22;6382;48.614;8.880;2023-07-24T01:28:29;17.30;99.90
12634;DHT22;6382;48.614;8.880;2023-07-24T01:30:56;17.20;99.90
12634;DHT22;6382;48.614;8.880;2023-07-24T01:33:24;17.20;99.90
12634;DHT22;6382;48.614;8.880;2023-07-24T01:35:55;17.20;99.90
12634;DHT22;6382;48.614;8.880;2023-07-24T01:38:23;17.20;99.90
12634;DHT22;6382;48.614;8.880;2023-07-24T01:40:51;18.40;99.90
12634;DHT22;6382;48.614;8.880;2023-07-24T01:43:18;17.20;99.90
12634;DHT22;6382;48.614;8.880;2023-07-24T01:45:45;17.20;99.90
12634;DHT22;6382;48.614;8.880;2023-07-24T01:48:12;17.40;99.90
12634;DHT22;6382;48.614;8.880;2023-07-24T01:50:39;17.40;99.90
12634;DHT22;6382;48.614;8.880;2023-07-24T01:53:06;17.30;99.90
12634;DHT22;6382;48.614;8.880;2023-07-24T01:55:33;17.60;99.90
12634;DHT22;6382;48.614;8.880;2023-07-24T01:58:00;17.80;99.90
12634;DHT22;6382;48.614;8.880;2023-07-24T02:00:27;17.60;99.90
12634;DHT22;6382;48.614;8.880;2023-07-24T02:02:54;15.80;99.90
12634;DHT22;6382;48.614;8.880;2023-07-24T02:05:22;17.50;99.90
12634;DHT22;6382;48.614;8.880;2023-07-24T02:07:48;15.90;99.90
12634;DHT22;6382;48.614;8.880;2023-07-24T02:10:15;17.60;99.90
12634;DHT22;6382;48.614;8.880;2023-07-24T02:12:42;17.50;99.90
12634;DHT22;6382;48.614;8.880;2023-07-24T02:15:09;17.90;99.90
12634;DHT22;6382;48.614;8.880;2023-07-24T02:17:36;17.60;99.90
12634;DHT22;6382;48.614;8.880;2023-07-24T02:20:04;17.40;99.90
12634;DHT22;6382;48.614;8.880;2023-07-24T02:22:31;17.60;99.90
12634;DHT22;6382;48.614;8.880;2023-07-24T02:24:58;17.30;99.90
12634;DHT22;6382;48.614;8.880;2023-07-24T02:27:27;17.50;99.90
12634;DHT22;6382;48.614;8.880;2023-07-24T02:29:55;17.40;99.90
12634;DHT22;6382;48.614;8.880;2023-07-24T02:32:22;17.30;99.90
12634;DHT22;6382;48.614;8.880;2023-07-24T02:34:49;17.20;99.90
12634;DHT22;6382;48.614;8.880;2023-07-24T02:37:16;17.00;99.90
12634;DHT22;6382;48.614;8.880;2023-07-24T02:39:43;16.80;99.90
12634;DHT22;6382;48.614;8.880;2023-07-24T02:42:10;17.00;99.90
12634;DHT22;6382;48.614;8.880;2023-07-24T02:44:40;16.90;99.90
12634;DHT22;6382;48.614;8.880;2023-07-24T02:47:07;16.80;99.90
12634;DHT22;6382;48.614;8.880;2023-07-24T02:49:34;16.70;99.90
12634;DHT22;6382;48.614;8.880;2023-07-24T02:52:01;16.70;99.90
12634;DHT22;6382;48.614;8.880;2023-07-24T02:54:28;16.70;99.90
12634;DHT22;6382;48.614;8.880;2023-07-24T02:56:57;17.80;99.90
12634;DHT22;6382;48.614;8.880;2023-07-24T02:59:24;16.80;99.90
12634;DHT22;6382;48.614;8.880;2023-07-24T03:01:51;16.80;99.90
12634;DHT22;6382;48.614;8.880;2023-07-24T03:04:19;16.60;99.90
12634;DHT22;6382;48.614;8.880;2023-07-24T03:06:46;16.40;99.90
12634;DHT22;6382;48.614;8.880;2023-07-24T03:09:13;16.50;99.90
12634;DHT22;6382;48.614;8.880;2023-07-24T03:11:40;18.20;99.90
12634;DHT22;6382;48.614;8.880;2023-07-24T03:14:07;16.60;99.90
12634;DHT22;6382;48.614;8.880;2023-07-24T03:16:34;17.20;99.90
12634;DHT22;6382;48.614;8.880;2023-07-24T03:19:01;15.70;99.90
12634;DHT22;6382;48.614;8.880;2023-07-24T03:21:28;16.40;99.90
12634;DHT22;6382;48.614;8.880;2023-07-24T03:23:55;16.20;99.90
12634;DHT22;6382;48.614;8.880;2023-07-24T03:26:22;16.70;99.90
12634;DHT22;6382;48.614;8.880;2023-07-24T03:28:49;16.10;99.90
12634;DHT22;6382;48.614;8.880;2023-07-24T03:31:16;16.00;99.90
12634;DHT22;6382;48.614;8.880;2023-07-24T03:33:43;17.40;99.90
12634;DHT22;6382;48.614;8.880;2023-07-24T03:36:10;15.40;99.90
12634;DHT22;6382;48.614;8.880;2023-07-24T03:38:37;16.80;99.90
12634;DHT22;6382;48.614;8.880;2023-07-24T03:41:03;14.00;99.90
12634;DHT22;6382;48.614;8.880;2023-07-24T03:43:30;15.20;99.90
12634;DHT22;6382;48.614;8.880;2023-07-24T03:45:57;15.10;99.90
12634;DHT22;6382;48.614;8.880;2023-07-24T03:48:24;15.30;99.90
12634;DHT22;6382;48.614;8.880;2023-07-24T03:50:57;15.60;99.90
12634;DHT22;6382;48.614;8.880;2023-07-24T03:53:24;15.70;99.90
12634;DHT22;6382;48.614;8.880;2023-07-24T03:55:51;17.80;99.90
12634;DHT22;6382;48.614;8.880;2023-07-24T03:58:18;15.80;99.90
12634;DHT22;6382;48.614;8.880;2023-07-24T04:00:45;16.00;99.90
12634;DHT22;6382;48.614;8.880;2023-07-24T04:03:12;15.90;99.90
12634;DHT22;6382;48.614;8.880;2023-07-24T04:05:39;16.10;99.90
12634;DHT22;6382;48.614;8.880;2023-07-24T04:08:06;17.00;99.90
12634;DHT22;6382;48.614;8.880;2023-07-24T04:10:33;16.20;99.90
12634;DHT22;6382;48.614;8.880;2023-07-24T04:12:59;16.10;99.90
12634;DHT22;6382;48.614;8.880;2023-07-24T04:15:26;15.70;99.90
12634;DHT22;6382;48.614;8.880;2023-07-24T04:17:53;16.60;99.90
12634;DHT22;6382;48.614;8.880;2023-07-24T04:20:23;16.70;99.90
12634;DHT22;6382;48.614;8.880;2023-07-24T04:22:50;16.80;99.90
12634;DHT22;6382;48.614;8.880;2023-07-24T04:25:17;16.80;99.90
12634;DHT22;6382;48.614;8.880;2023-07-24T04:27:44;16.60;99.90
12634;DHT22;6382;48.614;8.880;2023-07-24T04:30:11;18.10;99.90
12634;DHT22;6382;48.614;8.880;2023-07-24T04:32:38;16.90;99.90
12634;DHT22;6382;48.614;8.880;2023-07-24T04:35:05;17.80;99.90
12634;DHT22;6382;48.614;8.880;2023-07-24T04:37:32;16.80;99.90
12634;DHT22;6382;48.614;8.880;2023-07-24T04:39:59;16.90;99.90
12634;DHT22;6382;48.614;8.880;2023-07-24T04:42:26;16.80;99.90
12634;DHT22;6382;48.614;8.880;2023-07-24T04:44:53;16.70;99.90
12634;DHT22;6382;48.614;8.880;2023-07-24T04:47:19;17.10;99.90
12634;DHT22;6382;48.614;8.880;2023-07-24T04:49:49;17.00;99.90
12634;DHT22;6382;48.614;8.880;2023-07-24T04:52:15;18.10;99.90
12634;DHT22;6382;48.614;8.880;2023-07-24T04:54:42;17.20;99.90
12634;DHT22;6382;48.614;8.880;2023-07-24T04:57:09;18.00;99.90
12634;DHT22;6382;48.614;8.880;2023-07-24T04:59:38;18.80;99.90
12634;DHT22;6382;48.614;8.880;2023-07-24T05:02:05;17.20;99.90
12634;DHT22;6382;48.614;8.880;2023-07-24T05:04:32;17.00;99.90
12634;DHT22;6382;48.614;8.880;2023-07-24T05:06:59;17.30;99.90
12634;DHT22;6382;48.614;8.880;2023-07-24T05:09:26;15.70;99.90
12634;DHT22;6382;48.614;8.880;2023-07-24T05:11:53;17.40;99.90
12634;DHT22;6382;48.614;8.880;2023-07-24T05:14:23;17.50;99.90
12634;DHT22;6382;48.614;8.880;2023-07-24T05:16:50;17.60;99.90
12634;DHT22;6382;48.614;8.880;2023-07-24T05:19:26;18.50;99.90
12634;DHT22;6382;48.614;8.880;2023-07-24T07:04:21;20.50;99.90
12634;DHT22;6382;48.614;8.880;2023-07-24T07:07:04;19.80;99.90
12634;DHT22;6382;48.614;8.880;2023-07-24T07:09:54;18.70;99.90
12634;DHT22;6382;48.614;8.880;2023-07-24T07:12:36;20.20;99.90
12634;DHT22;6382;48.614;8.880;2023-07-24T07:33:42;20.20;99.90
12634;DHT22;6382;48.614;8.880;2023-07-24T07:36:09;20.30;99.90
12634;DHT22;6382;48.614;8.880;2023-07-24T07:38:37;20.30;99.90
12634;DHT22;6382;48.614;8.880;2023-07-24T07:41:06;20.50;99.90
12634;DHT22;6382;48.614;8.880;2023-07-24T07:43:33;20.50;99.90
12634;DHT22;6382;48.614;8.880;2023-07-24T07:48:36;20.50;99.90
12634;DHT22;6382;48.614;8.880;2023-07-24T07:51:03;20.40;99.90
12634;DHT22;6382;48.614;8.880;2023-07-24T07:53:30;19.00;99.90
12634;DHT22;6382;48.614;8.880;2023-07-24T07:55:58;20.40;99.90
12634;DHT22;6382;48.614;8.880;2023-07-24T07:58:26;20.20;99.90
12634;DHT22;6382;48.614;8.880;2023-07-24T08:00:53;18.80;99.90
12634;DHT22;6382;48.614;8.880;2023-07-24T08:03:20;20.00;99.90
12634;DHT22;6382;48.614;8.880;2023-07-24T08:05:47;19.80;99.90
12634;DHT22;6382;48.614;8.880;2023-07-24T08:08:15;19.80;99.90
12634;DHT22;6382;48.614;8.880;2023-07-24T08:10:41;18.90;99.90
12634;DHT22;6382;48.614;8.880;2023-07-24T08:13:08;19.30;99.90
12634;DHT22;6382;48.614;8.880;2023-07-24T08:15:36;19.40;99.90
12634;DHT22;6382;48.614;8.880;2023-07-24T08:18:05;18.90;99.90
12634;DHT22;6382;48.614;8.880;2023-07-24T08:20:35;18.70;99.90
12634;DHT22;6382;48.614;8.880;2023-07-24T08:23:02;19.00;99.90
12634;DHT22;6382;48.614;8.880;2023-07-24T08:25:29;18.80;99.90
12634;DHT22;6382;48.614;8.880;2023-07-24T08:27:56;18.90;99.90
12634;DHT22;6382;48.614;8.880;2023-07-24T08:30:32;19.00;99.90
12634;DHT22;6382;48.614;8.880;2023-07-24T08:33:00;19.00;99.90
12634;DHT22;6382;48.614;8.880;2023-07-24T08:35:27;18.80;99.90
12634;DHT22;6382;48.614;8.880;2023-07-24T08:37:56;19.10;99.90
12634;DHT22;6382;48.614;8.880;2023-07-24T08:40:23;19.00;99.90
12634;DHT22;6382;48.614;8.880;2023-07-24T08:42:50;18.80;99.90
12634;DHT22;6382;48.614;8.880;2023-07-24T08:45:18;19.10;99.90
12634;DHT22;6382;48.614;8.880;2023-07-24T08:47:46;19.80;99.90
12634;DHT22;6382;48.614;8.880;2023-07-24T08:50:13;17.80;99.90
12634;DHT22;6382;48.614;8.880;2023-07-24T08:52:42;19.10;99.90
12634;DHT22;6382;48.614;8.880;2023-07-24T08:55:11;20.30;99.90
12634;DHT22;6382;48.614;8.880;2023-07-24T08:57:38;20.20;99.90
12634;DHT22;6382;48.614;8.880;2023-07-24T09:00:05;19.50;99.90
12634;DHT22;6382;48.614;8.880;2023-07-24T09:02:33;20.70;99.90
12634;DHT22;6382;48.614;8.880;2023-07-24T09:05:00;19.80;99.90
12634;DHT22;6382;48.614;8.880;2023-07-24T09:07:27;19.80;99.90
12634;DHT22;6382;48.614;8.880;2023-07-24T09:09:56;21.40;99.90
12634;DHT22;6382;48.614;8.880;2023-07-24T09:12:23;20.20;99.90
12634;DHT22;6382;48.614;8.880;2023-07-24T09:15:00;20.30;99.90
12634;DHT22;6382;48.614;8.880;2023-07-24T09:17:28;20.10;99.90
12634;DHT22;6382;48.614;8.880;2023-07-24T09:19:56;20.70;99.90
12634;DHT22;6382;48.614;8.880;2023-07-24T09:22:23;20.70;99.90
12634;DHT22;6382;48.614;8.880;2023-07-24T09:24:57;20.80;99.90
12634;DHT22;6382;48.614;8.880;2023-07-24T09:27:25;21.00;99.90
12634;DHT22;6382;48.614;8.880;2023-07-24T09:29:53;20.80;99.90
12634;DHT22;6382;48.614;8.880;2023-07-24T09:32:25;20.80;99.90
12634;DHT22;6382;48.614;8.880;2023-07-24T09:34:52;20.00;99.90
12634;DHT22;6382;48.614;8.880;2023-07-24T09:37:28;20.80;99.90
12634;DHT22;6382;48.614;8.880;2023-07-24T09:39:55;20.90;99.90
12634;DHT22;6382;48.614;8.880;2023-07-24T09:42:32;20.80;99.90
12634;DHT22;6382;48.614;8.880;2023-07-24T09:45:03;20.60;99.90
12634;DHT22;6382;48.614;8.880;2023-07-24T09:47:30;20.60;99.90
12634;DHT22;6382;48.614;8.880;2023-07-24T09:50:17;21.80;99.90
12634;DHT22;6382;48.614;8.880;2023-07-24T09:52:45;20.60;99.90
12634;DHT22;6382;48.614;8.880;2023-07-24T09:55:19;20.40;99.90
12634;DHT22;6382;48.614;8.880;2023-07-24T09:57:48;20.40;99.90
12634;DHT22;6382;48.614;8.880;2023-07-24T10:00:16;20.40;99.90
12634;DHT22;6382;48.614;8.880;2023-07-24T10:02:43;20.30;99.90
12634;DHT22;6382;48.614;8.880;2023-07-24T10:05:11;20.20;99.90
12634;DHT22;6382;48.614;8.880;2023-07-24T10:07:38;20.10;99.90
12634;DHT22;6382;48.614;8.880;2023-07-24T10:10:05;20.00;99.90
12634;DHT22;6382;48.614;8.880;2023-07-24T10:12:33;20.00;99.90
12634;DHT22;6382;48.614;8.880;2023-07-24T10:15:00;20.00;99.90
12634;DHT22;6382;48.614;8.880;2023-07-24T10:17:38;19.80;99.90
12634;DHT22;6382;48.614;8.880;2023-07-24T10:20:07;19.80;99.90
12634;DHT22;6382;48.614;8.880;2023-07-24T10:22:35;19.80;99.90
12634;DHT22;6382;48.614;8.880;2023-07-24T10:25:02;19.60;99.90
12634;DHT22;6382;48.614;8.880;2023-07-24T10:27:29;19.50;99.90
12634;DHT22;6382;48.614;8.880;2023-07-24T10:30:00;19.40;99.90
12634;DHT22;6382;48.614;8.880;2023-07-24T10:32:32;19.40;99.90
12634;DHT22;6382;48.614;8.880;2023-07-24T10:34:59;19.30;99.90
12634;DHT22;6382;48.614;8.880;2023-07-24T10:37:33;19.30;99.90
12634;DHT22;6382;48.614;8.880;2023-07-24T10:40:02;19.20;99.90
12634;DHT22;6382;48.614;8.880;2023-07-24T10:42:30;19.10;99.90
12634;DHT22;6382;48.614;8.880;2023-07-24T10:45:04;18.90;99.90
12634;DHT22;6382;48.614;8.880;2023-07-24T10:47:32;18.90;99.90
12634;DHT22;6382;48.614;8.880;2023-07-24T10:49:59;19.50;99.90
12634;DHT22;6382;48.614;8.880;2023-07-24T10:52:30;18.70;99.90
12634;DHT22;6382;48.614;8.880;2023-07-24T10:54:59;18.60;99.90
12634;DHT22;6382;48.614;8.880;2023-07-24T10:57:26;18.60;99.90
12634;DHT22;6382;48.614;8.880;2023-07-24T10:59:53;18.50;99.90
12634;DHT22;6382;48.614;8.880;2023-07-24T11:02:20;19.20;99.90
12634;DHT22;6382;48.614;8.880;2023-07-24T11:04:47;18.50;99.90
12634;DHT22;6382;48.614;8.880;2023-07-24T11:07:14;18.50;99.90
12634;DHT22;6382;48.614;8.880;2023-07-24T11:09:41;18.90;99.90
12634;DHT22;6382;48.614;8.880;2023-07-24T11:12:12;18.60;99.90
12634;DHT22;6382;48.614;8.880;2023-07-24T11:14:46;18.50;99.90
12634;DHT22;6382;48.614;8.880;2023-07-24T11:17:13;18.50;99.90
12634;DHT22;6382;48.614;8.880;2023-07-24T11:19:40;18.50;99.90
12634;DHT22;6382;48.614;8.880;2023-07-24T11:22:07;18.10;99.90
12634;DHT22;6382;48.614;8.880;2023-07-24T11:24:41;18.30;99.90
12634;DHT22;6382;48.614;8.880;2023-07-24T11:27:09;18.90;99.90
12634;DHT22;6382;48.614;8.880;2023-07-24T11:29:36;18.50;99.90
12634;DHT22;6382;48.614;8.880;2023-07-24T11:32:04;19.00;99.90
12634;DHT22;6382;48.614;8.880;2023-07-24T11:34:31;19.30;99.90
12634;DHT22;6382;48.614;8.880;2023-07-24T11:36:58;19.60;99.90
12634;DHT22;6382;48.614;8.880;2023-07-24T11:39:25;19.80;99.90
12634;DHT22;6382;48.614;8.880;2023-07-24T11:41:52;20.00;99.90
12634;DHT22;6382;48.614;8.880;2023-07-24T11:44:26;20.10;99.90
12634;DHT22;6382;48.614;8.880;2023-07-24T11:47:03;20.20;99.90
12634;DHT22;6382;48.614;8.880;2023-07-24T11:49:30;20.20;99.90
12634;DHT22;6382;48.614;8.880;2023-07-24T11:52:02;20.30;99.90
12634;DHT22;6382;48.614;8.880;2023-07-24T11:54:30;20.30;99.90
12634;DHT22;6382;48.614;8.880;2023-07-24T11:56:57;20.40;99.90
12634;DHT22;6382;48.614;8.880;2023-07-24T11:59:24;20.60;99.90
12634;DHT22;6382;48.614;8.880;2023-07-24T12:01:51;22.10;99.90
12634;DHT22;6382;48.614;8.880;2023-07-24T12:04:17;21.00;99.90
12634;DHT22;6382;48.614;8.880;2023-07-24T12:06:45;21.10;99.90
12634;DHT22;6382;48.614;8.880;2023-07-24T12:09:12;21.20;99.90
12634;DHT22;6382;48.614;8.880;2023-07-24T12:11:39;21.20;99.90
12634;DHT22;6382;48.614;8.880;2023-07-24T12:14:11;21.30;99.90
12634;DHT22;6382;48.614;8.880;2023-07-24T12:16:38;21.50;99.90
12634;DHT22;6382;48.614;8.880;2023-07-24T12:19:05;21.70;99.90
12634;DHT22;6382;48.614;8.880;2023-07-24T12:21:32;22.00;99.90
12634;DHT22;6382;48.614;8.880;2023-07-24T12:24:00;22.00;99.90
12634;DHT22;6382;48.614;8.880;2023-07-24T12:26:26;22.10;99.90
12634;DHT22;6382;48.614;8.880;2023-07-24T12:28:54;22.20;99.90
12634;DHT22;6382;48.614;8.880;2023-07-24T12:31:21;22.20;99.90
12634;DHT22;6382;48.614;8.880;2023-07-24T12:33:48;22.20;99.90
12634;DHT22;6382;48.614;8.880;2023-07-24T12:36:15;20.20;99.90
12634;DHT22;6382;48.614;8.880;2023-07-24T12:38:42;22.10;99.90
12634;DHT22;6382;48.614;8.880;2023-07-24T12:41:09;21.70;99.90
12634;DHT22;6382;48.614;8.880;2023-07-24T12:43:36;20.80;99.90
12634;DHT22;6382;48.614;8.880;2023-07-24T12:46:03;22.80;99.90
12634;DHT22;6382;48.614;8.880;2023-07-24T12:48:30;24.80;99.90
12634;DHT22;6382;48.614;8.880;2023-07-24T12:50:58;22.90;99.90
12634;DHT22;6382;48.614;8.880;2023-07-24T12:53:26;22.60;99.90
12634;DHT22;6382;48.614;8.880;2023-07-24T12:56:00;22.60;99.90
12634;DHT22;6382;48.614;8.880;2023-07-24T12:58:27;22.80;99.90
12634;DHT22;6382;48.614;8.880;2023-07-24T13:00:56;22.00;99.90
12634;DHT22;6382;48.614;8.880;2023-07-24T13:03:23;22.60;99.90
12634;DHT22;6382;48.614;8.880;2023-07-24T13:05:54;22.80;99.90
12634;DHT22;6382;48.614;8.880;2023-07-24T13:08:30;22.80;99.90
12634;DHT22;6382;48.614;8.880;2023-07-24T13:11:06;22.60;99.90
12634;DHT22;6382;48.614;8.880;2023-07-24T13:13:37;22.80;99.90
12634;DHT22;6382;48.614;8.880;2023-07-24T13:16:09;22.90;99.90
12634;DHT22;6382;48.614;8.880;2023-07-24T13:18:36;23.00;99.90
12634;DHT22;6382;48.614;8.880;2023-07-24T13:21:06;23.20;99.90
12634;DHT22;6382;48.614;8.880;2023-07-24T13:23:34;23.30;99.90
12634;DHT22;6382;48.614;8.880;2023-07-24T13:26:01;23.30;99.90
12634;DHT22;6382;48.614;8.880;2023-07-24T13:28:41;23.40;99.90
12634;DHT22;6382;48.614;8.880;2023-07-24T13:31:15;23.20;99.90
12634;DHT22;6382;48.614;8.880;2023-07-24T13:33:43;23.40;99.90
12634;DHT22;6382;48.614;8.880;2023-07-24T13:36:13;23.40;99.90
12634;DHT22;6382;48.614;8.880;2023-07-24T13:38:40;23.30;99.90
12634;DHT22;6382;48.614;8.880;2023-07-24T13:41:09;25.10;99.90
12634;DHT22;6382;48.614;8.880;2023-07-24T13:43:36;23.20;99.90
12634;DHT22;6382;48.614;8.880;2023-07-24T13:46:03;23.00;99.90
12634;DHT22;6382;48.614;8.880;2023-07-24T13:48:31;23.10;99.90
12634;DHT22;6382;48.614;8.880;2023-07-24T13:50:58;23.00;99.90
12634;DHT22;6382;48.614;8.880;2023-07-24T13:53:25;22.90;99.90
12634;DHT22;6382;48.614;8.880;2023-07-24T13:55:53;22.70;99.90
12634;DHT22;6382;48.614;8.880;2023-07-24T13:58:24;22.90;99.90
12634;DHT22;6382;48.614;8.880;2023-07-24T14:00:52;23.40;99.90
12634;DHT22;6382;48.614;8.880;2023-07-24T14:03:22;23.00;99.90
12634;DHT22;6382;48.614;8.880;2023-07-24T14:05:55;23.00;99.90
12634;DHT22;6382;48.614;8.880;2023-07-24T14:08:24;22.90;99.90
12634;DHT22;6382;48.614;8.880;2023-07-24T14:10:51;22.90;99.90
12634;DHT22;6382;48.614;8.880;2023-07-24T14:13:18;22.90;99.90
12634;DHT22;6382;48.614;8.880;2023-07-24T14:15:45;23.00;99.90
12634;DHT22;6382;48.614;8.880;2023-07-24T14:18:12;23.10;99.90
12634;DHT22;6382;48.614;8.880;2023-07-24T14:20:39;23.30;99.90
12634;DHT22;6382;48.614;8.880;2023-07-24T14:23:07;23.30;99.90
12634;DHT22;6382;48.614;8.880;2023-07-24T14:25:34;23.50;99.90
12634;DHT22;6382;48.614;8.880;2023-07-24T14:28:01;22.60;99.90
12634;DHT22;6382;48.614;8.880;2023-07-24T14:30:28;23.40;99.90
12634;DHT22;6382;48.614;8.880;2023-07-24T14:32:55;23.50;99.90
12634;DHT22;6382;48.614;8.880;2023-07-24T14:35:22;23.60;99.90
12634;DHT22;6382;48.614;8.880;2023-07-24T14:37:51;23.50;99.90
12634;DHT22;6382;48.614;8.880;2023-07-24T14:40:19;23.60;99.90
12634;DHT22;6382;48.614;8.880;2023-07-24T14:42:48;24.80;99.90
12634;DHT22;6382;48.614;8.880;2023-07-24T14:45:15;23.60;99.90
12634;DHT22;6382;48.614;8.880;2023-07-24T14:47:42;23.30;99.90
12634;DHT22;6382;48.614;8.880;2023-07-24T14:50:09;23.40;99.90
12634;DHT22;6382;48.614;8.880;2023-07-24T14:52:36;24.00;99.90
12634;DHT22;6382;48.614;8.880;2023-07-24T14:55:04;22.90;99.90
12634;DHT22;6382;48.614;8.880;2023-07-24T14:57:31;23.00;99.90
12634;DHT22;6382;48.614;8.880;2023-07-24T14:59:59;23.10;99.90
12634;DHT22;6382;48.614;8.880;2023-07-24T15:02:26;23.00;99.90
12634;DHT22;6382;48.614;8.880;2023-07-24T15:04:53;23.20;99.90
12634;DHT22;6382;48.614;8.880;2023-07-24T15:07:20;23.10;99.90
12634;DHT22;6382;48.614;8.880;2023-07-24T15:09:47;23.00;99.90
12634;DHT22;6382;48.614;8.880;2023-07-24T15:12:14;23.20;99.90
12634;DHT22;6382;48.614;8.880;2023-07-24T15:14:44;23.10;99.90
12634;DHT22;6382;48.614;8.880;2023-07-24T15:17:11;21.70;99.90
12634;DHT22;6382;48.614;8.880;2023-07-24T15:19:41;21.50;99.90
12634;DHT22;6382;48.614;8.880;2023-07-24T15:22:08;23.20;99.90
12634;DHT22;6382;48.614;8.880;2023-07-24T15:24:35;23.70;99.90
12634;DHT22;6382;48.614;8.880;2023-07-24T15:27:02;22.80;99.90
12634;DHT22;6382;48.614;8.880;2023-07-24T15:29:35;22.10;99.90
12634;DHT22;6382;48.614;8.880;2023-07-24T15:32:02;24.20;99.90
12634;DHT22;6382;48.614;8.880;2023-07-24T15:34:32;22.40;99.90
12634;DHT22;6382;48.614;8.880;2023-07-24T15:37:03;22.40;99.90
12634;DHT22;6382;48.614;8.880;2023-07-24T15:39:29;22.30;99.90
12634;DHT22;6382;48.614;8.880;2023-07-24T15:41:56;22.10;99.90
12634;DHT22;6382;48.614;8.880;2023-07-24T15:44:23;21.90;99.90
12634;DHT22;6382;48.614;8.880;2023-07-24T15:46:50;22.00;99.90
12634;DHT22;6382;48.614;8.880;2023-07-24T15:49:17;22.30;99.90
12634;DHT22;6382;48.614;8.880;2023-07-24T15:51:44;22.20;99.90
12634;DHT22;6382;48.614;8.880;2023-07-24T15:54:11;22.10;99.90
12634;DHT22;6382;48.614;8.880;2023-07-24T15:56:38;21.00;99.90
12634;DHT22;6382;48.614;8.880;2023-07-24T15:59:05;22.20;99.90
12634;DHT22;6382;48.614;8.880;2023-07-24T16:01:32;22.10;99.90
12634;DHT22;6382;48.614;8.880;2023-07-24T16:04:00;22.10;99.90
12634;DHT22;6382;48.614;8.880;2023-07-24T16:06:27;22.00;99.90
12634;DHT22;6382;48.614;8.880;2023-07-24T16:08:54;22.10;99.90
12634;DHT22;6382;48.614;8.880;2023-07-24T16:11:21;21.70;99.90
12634;DHT22;6382;48.614;8.880;2023-07-24T16:13:48;21.60;99.90
12634;DHT22;6382;48.614;8.880;2023-07-24T16:16:15;21.40;99.90
12634;DHT22;6382;48.614;8.880;2023-07-24T16:18:42;21.50;99.90
12634;DHT22;6382;48.614;8.880;2023-07-24T16:21:09;21.70;99.90
12634;DHT22;6382;48.614;8.880;2023-07-24T16:23:36;21.40;99.90
12634;DHT22;6382;48.614;8.880;2023-07-24T16:26:05;21.10;99.90
12634;DHT22;6382;48.614;8.880;2023-07-24T16:28:32;21.30;99.90
12634;DHT22;6382;48.614;8.880;2023-07-24T16:30:59;21.40;99.90
12634;DHT22;6382;48.614;8.880;2023-07-24T16:33:26;21.30;99.90
12634;DHT22;6382;48.614;8.880;2023-07-24T16:35:56;21.20;99.90
12634;DHT22;6382;48.614;8.880;2023-07-24T16:38:27;21.30;99.90
12634;DHT22;6382;48.614;8.880;2023-07-24T16:40:57;21.80;99.90
12634;DHT22;6382;48.614;8.880;2023-07-24T16:43:23;21.50;99.90
12634;DHT22;6382;48.614;8.880;2023-07-24T16:45:51;21.40;99.90
12634;DHT22;6382;48.614;8.880;2023-07-24T16:48:20;21.40;99.90
12634;DHT22;6382;48.614;8.880;2023-07-24T16:50:47;21.40;99.90
12634;DHT22;6382;48.614;8.880;2023-07-24T16:53:14;21.80;99.90
12634;DHT22;6382;48.614;8.880;2023-07-24T16:55:41;21.50;99.90
12634;DHT22;6382;48.614;8.880;2023-07-24T16:58:08;21.40;99.90
12634;DHT22;6382;48.614;8.880;2023-07-24T17:00:35;21.30;99.90
12634;DHT22;6382;48.614;8.880;2023-07-24T17:03:02;21.40;99.90
12634;DHT22;6382;48.614;8.880;2023-07-24T17:05:29;21.30;99.90
12634;DHT22;6382;48.614;8.880;2023-07-24T17:07:56;21.30;99.90
12634;DHT22;6382;48.614;8.880;2023-07-24T17:10:22;21.30;99.90
12634;DHT22;6382;48.614;8.880;2023-07-24T17:12:49;21.30;99.90
12634;DHT22;6382;48.614;8.880;2023-07-24T17:15:16;21.30;99.90
12634;DHT22;6382;48.614;8.880;2023-07-24T17:17:43;21.60;99.90
12634;DHT22;6382;48.614;8.880;2023-07-24T17:20:11;21.10;99.90
12634;DHT22;6382;48.614;8.880;2023-07-24T17:22:40;21.00;99.90
12634;DHT22;6382;48.614;8.880;2023-07-24T17:25:07;21.20;99.90
12634;DHT22;6382;48.614;8.880;2023-07-24T17:27:34;20.60;99.90
12634;DHT22;6382;48.614;8.880;2023-07-24T17:30:04;20.80;99.90
12634;DHT22;6382;48.614;8.880;2023-07-24T17:32:31;20.90;99.90
12634;DHT22;6382;48.614;8.880;2023-07-24T17:34:58;20.80;99.90
12634;DHT22;6382;48.614;8.880;2023-07-24T17:37:24;20.60;99.90
12634;DHT22;6382;48.614;8.880;2023-07-24T17:40:04;20.50;99.90
12634;DHT22;6382;48.614;8.880;2023-07-24T17:42:33;20.30;99.90
12634;DHT22;6382;48.614;8.880;2023-07-24T17:44:59;20.20;99.90
12634;DHT22;6382;48.614;8.880;2023-07-24T17:47:26;20.10;99.90
12634;DHT22;6382;48.614;8.880;2023-07-24T17:49:53;20.00;99.90
12634;DHT22;6382;48.614;8.880;2023-07-24T17:52:33;21.50;99.90
12634;DHT22;6382;48.614;8.880;2023-07-24T17:55:00;20.50;99.90
12634;DHT22;6382;48.614;8.880;2023-07-24T17:57:27;19.80;99.90
12634;DHT22;6382;48.614;8.880;2023-07-24T17:59:54;20.20;99.90